Nearby METAR Reports


RPLI - Laoag Intl Airport, Philippines
Distance from station: N 171km
Updated: Mon, 08-Aug-2022 8:00pm PST
NOT Current
Light rain, Overcast
Light rain, Overcast
 Wind from E
Wind: E 6 km/h
Temperature: 25°C
Dew Point: 24°C
Humidity: 94%
Barometer: 1007 hPa
Summary: Light rain
Clouds: Overcast
Visibility: 8 km
Cloud details: Few Clouds 549 m
Overcast 2743 m
2022/08/08 12:00 RPLI 081200Z 09003KT 8000 -RA FEW018 OVC090 25/24 Q1007 NOSIG RMK A2974
RPLB - Olongapo/Subic, Philippines
Distance from station: S 205km
Updated: Mon, 08-Aug-2022 9:00pm PST
Light rain, Overcast
Light rain, Overcast
 Wind from ENE
Wind: ENE 13 km/h
Temperature: 24°C
Dew Point: 23°C
Humidity: 94%
Barometer: 1009 hPa
Summary: Light rain
Clouds: Overcast
Visibility: 9 km
Cloud details: Partly cloudy 549 m
Overcast 2134 m
2022/08/08 13:00 RPLB 081300Z 06007KT 9000 -RA SCT018 OVC070 24/23 Q1009 RMK A2980
 
RPLL - Ninoy Aquino Intl Airport, Philippines
Distance from station: SSE 247km
Updated: Mon, 08-Aug-2022 9:00pm PST
Light thunderstorm, Rain, Overcast
Light thunderstorm, Rain, Overcast
 Wind from N
Wind: N 7 km/h
Temperature: 25°C
Dew Point: 24°C
Humidity: 94%
Barometer: 1009 hPa
Summary: Light thunderstorm, Rain
Clouds: Overcast
Visibility: 6 km
Cloud details: Few Clouds 610 m
Partly cloudy 671 m
Overcast 2743 m
2022/08/08 13:00 RPLL 081300Z 01004KT 6000 -TSRA FEW020CB SCT022 OVC090 25/24 Q1009 BECMG FM1400 9000 NSW RMK A2980 CB/OCNL LTG N